Time;durP1;ratioP1;P1;durP2;ratioP2;P2;SDS_P1;SDS_P2;PMS_P1;PMS_P2;Temp;Humidity;BMP_temperature;BMP_pressure;BME280_temperature;BME280_humidity;BME280_pressure;Samples;Min_cycle;Max_cycle;Signal;HPM_P1;HPM_P2
2023/03/02 00:01:49;;;;;;;8.00;3.78;;;;;;;-148.88;61.09;77817.09;5079445;28;20020;-79
2023/03/02 00:04:25;;;;;;;9.02;3.60;;;;;;;-148.88;61.56;77837.41;5079529;28;20021;-79
2023/03/02 00:06:55;;;;;;;7.85;4.10;;;;;;;-148.88;62.54;77855.69;5077681;28;20501;-79
2023/03/02 00:09:21;;;;;;;10.50;3.90;;;;;;;-148.88;64.05;77865.84;5076075;28;20520;-79
2023/03/02 00:11:46;;;;;;;9.95;4.10;;;;;;;-148.88;66.11;77874.00;5078379;28;20111;-79
2023/03/02 00:14:11;;;;;;;7.70;4.00;;;;;;;-148.88;66.56;77853.66;5078617;28;20394;-79
2023/03/02 00:16:39;;;;;;;9.68;3.90;;;;;;;-148.88;68.13;77882.13;5079332;28;20033;-79
2023/03/02 00:19:04;;;;;;;8.80;4.20;;;;;;;-148.88;66.78;77857.72;5077310;28;20021;-79
2023/03/02 00:21:30;;;;;;;8.88;3.80;;;;;;;-148.88;66.01;77849.59;5078638;28;20025;-81
2023/03/02 00:23:55;;;;;;;9.93;3.72;;;;;;;-148.88;67.86;77914.63;5079188;28;20070;-78
2023/03/02 00:26:21;;;;;;;8.70;3.67;;;;;;;-148.88;68.10;77910.56;5077580;28;20479;-78
2023/03/02 00:28:46;;;;;;;11.00;4.97;;;;;;;-148.88;69.06;77930.91;5077925;28;20044;-78
2023/03/02 00:31:11;;;;;;;12.02;4.22;;;;;;;-148.88;70.06;77953.25;5078027;28;20047;-78
2023/03/02 00:33:37;;;;;;;9.90;4.25;;;;;;;-148.88;68.99;77939.03;5077669;28;20363;-78
2023/03/02 00:36:02;;;;;;;8.38;4.32;;;;;;;-148.88;68.86;77943.09;5077841;28;20028;-78
2023/03/02 00:38:27;;;;;;;10.88;3.92;;;;;;;-148.88;67.66;77932.94;5076671;28;20039;-78
2023/03/02 00:40:54;;;;;;;9.55;4.03;;;;;;;-148.88;66.35;77930.91;5077957;28;20085;-78
2023/03/02 00:43:21;;;;;;;11.02;4.20;;;;;;;-148.88;65.99;77926.81;5077516;28;20024;-78
2023/03/02 00:45:47;;;;;;;9.52;3.92;;;;;;;-148.88;65.96;77928.84;5075913;28;20348;-78
2023/03/02 00:48:12;;;;;;;9.23;3.45;;;;;;;-148.88;65.50;77918.69;5077944;28;20479;-78
2023/03/02 00:50:39;;;;;;;7.63;3.35;;;;;;;-148.88;65.33;77914.63;5078363;28;20494;-78
2023/03/02 00:53:08;;;;;;;8.73;4.00;;;;;;;-148.88;64.79;77902.44;5077675;28;20020;-78
2023/03/02 00:55:34;;;;;;;9.65;3.80;;;;;;;-148.88;64.49;77890.25;5078949;28;20060;-78
2023/03/02 00:57:59;;;;;;;7.82;3.83;;;;;;;-148.88;64.33;77894.31;5078373;28;20452;-78
2023/03/02 01:00:27;;;;;;;7.47;3.55;;;;;;;-148.88;64.23;77902.44;5077046;28;20032;-78
2023/03/02 01:02:52;;;;;;;8.10;3.55;;;;;;;-148.88;nan;77902.44;5076225;28;20016;-78
2023/03/02 01:05:17;;;;;;;9.30;3.80;;;;;;;-148.88;64.93;77902.44;5075678;28;20082;-78
2023/03/02 01:07:43;;;;;;;7.88;3.80;;;;;;;-148.88;65.41;77930.91;5075985;28;20375;-78
2023/03/02 01:10:09;;;;;;;9.10;4.00;;;;;;;-148.88;64.94;77920.72;5077082;28;20042;-78
2023/03/02 01:12:34;;;;;;;6.10;3.60;;;;;;;-148.88;65.71;77916.66;5077422;28;20017;-78
2023/03/02 01:15:00;;;;;;;7.25;3.20;;;;;;;-148.88;65.31;77906.50;5076179;28;20052;-77
2023/03/02 01:17:26;;;;;;;8.05;3.70;;;;;;;-148.88;65.78;77912.59;5076789;28;20025;-78
2023/03/02 01:19:51;;;;;;;9.93;3.72;;;;;;;-148.88;65.96;77926.81;5076171;28;20475;-78
2023/03/02 01:22:18;;;;;;;9.07;4.03;;;;;;;-148.88;66.14;77939.03;5075005;28;20032;-77
2023/03/02 01:24:43;;;;;;;9.00;3.65;;;;;;;-148.88;67.38;77971.53;5078252;28;20028;-78
2023/03/02 01:27:09;;;;;;;12.50;3.42;;;;;;;-148.88;67.31;77953.25;5075915;28;20032;-78
2023/03/02 01:29:35;;;;;;;11.68;4.32;;;;;;;-148.88;70.05;77985.75;5075981;28;20016;-78
2023/03/02 01:32:01;;;;;;;10.00;3.38;;;;;;;-148.88;72.22;77971.53;5077174;28;20024;-78
2023/03/02 01:34:26;;;;;;;9.13;4.00;;;;;;;-148.88;73.17;78008.13;5076813;28;20024;-78
2023/03/02 01:36:51;;;;;;;8.57;3.75;;;;;;;-148.88;74.01;78032.50;5075262;28;20017;-78
2023/03/02 01:39:21;;;;;;;8.50;4.03;;;;;;;-148.88;74.22;78010.16;5075851;28;20454;-78
2023/03/02 01:41:46;;;;;;;10.57;4.13;;;;;;;-148.88;73.62;78020.31;5075539;28;20016;-78
2023/03/02 01:44:33;;;;;;;8.65;3.95;;;;;;;-148.88;73.43;78036.56;5077534;28;20024;-78
2023/03/02 01:46:58;;;;;;;8.85;4.32;;;;;;;-148.88;72.65;78028.44;5076335;28;20024;-78
2023/03/02 01:49:24;;;;;;;7.85;3.42;;;;;;;-148.88;72.99;78020.31;5076307;28;20482;-78
2023/03/02 01:51:50;;;;;;;9.70;4.05;;;;;;;-148.88;72.49;78026.41;5075255;28;20020;-78
2023/03/02 01:54:21;;;;;;;7.97;3.83;;;;;;;-148.88;72.35;78010.16;5076527;28;20067;-78
2023/03/02 01:56:54;;;;;;;7.53;4.13;;;;;;;-148.88;72.15;78004.06;5076719;28;20024;-78
2023/03/02 01:59:22;;;;;;;8.57;3.90;;;;;;;-148.88;72.84;78012.19;5077025;28;20028;-78
2023/03/02 02:01:52;;;;;;;9.05;4.22;;;;;;;-148.88;73.34;78006.09;5079139;28;20039;-78
2023/03/02 02:04:18;;;;;;;11.88;4.03;;;;;;;-148.88;74.01;78020.31;5077340;28;20029;-78
2023/03/02 02:06:47;;;;;;;9.70;3.78;;;;;;;-148.88;75.09;78018.28;5078034;28;20376;-78
2023/03/02 02:09:16;;;;;;;7.70;3.63;;;;;;;-148.88;73.32;77977.63;5078561;28;20463;-78
2023/03/02 02:11:42;;;;;;;9.23;3.53;;;;;;;-148.88;72.57;77975.59;5075656;28;20082;-78
2023/03/02 02:14:08;;;;;;;9.00;3.47;;;;;;;-148.88;72.82;77983.72;5078581;28;20051;-78
2023/03/02 02:16:35;;;;;;;8.65;4.00;;;;;;;-148.88;74.45;78022.34;5076497;28;20038;-78
2023/03/02 02:19:02;;;;;;;8.70;3.85;;;;;;;-148.88;74.65;78034.53;5076428;28;20020;-78
2023/03/02 02:21:28;;;;;;;12.25;4.15;;;;;;;-148.88;74.68;78036.56;5076637;28;20024;-78
2023/03/02 02:24:05;;;;;;;9.30;3.72;;;;;;;-148.88;75.65;78036.56;5075448;28;20508;-78
2023/03/02 02:26:52;;;;;;;9.57;4.00;;;;;;;-148.88;75.38;78028.44;5074813;28;20493;-78
2023/03/02 02:29:23;;;;;;;9.38;3.95;;;;;;;-148.88;75.69;78032.50;5076615;28;20032;-78
2023/03/02 02:31:55;;;;;;;9.18;4.20;;;;;;;-148.88;75.67;78028.44;5076937;28;20021;-78
2023/03/02 02:34:29;;;;;;;8.80;4.25;;;;;;;-148.88;76.55;78044.69;5077401;28;20510;-78
2023/03/02 02:37:02;;;;;;;7.20;4.60;;;;;;;-148.88;78.31;78044.69;5082242;28;20025;-78
2023/03/02 02:39:33;;;;;;;8.77;3.58;;;;;;;-148.88;77.98;78048.78;5084328;28;20028;-78
2023/03/02 02:42:02;;;;;;;7.18;3.60;;;;;;;-148.88;77.73;78018.28;5082483;28;20031;-78
2023/03/02 02:44:27;;;;;;;11.10;4.28;;;;;;;-148.88;78.08;78008.13;5081631;28;20029;-78
2023/03/02 02:46:53;;;;;;;10.85;4.38;;;;;;;-148.88;78.61;78028.44;5081762;28;20050;-78
2023/03/02 02:49:34;;;;;;;9.88;4.28;;;;;;;-148.88;78.75;78036.56;5082821;28;20048;-78
2023/03/02 02:52:01;;;;;;;8.20;4.47;;;;;;;-148.88;78.98;78030.47;5097103;28;20044;-78
2023/03/02 02:54:28;;;;;;;10.02;4.47;;;;;;;-148.88;79.69;78030.47;5095496;28;20021;-78
2023/03/02 02:56:55;;;;;;;11.45;4.75;;;;;;;-148.88;79.73;78024.38;5088641;28;20024;-78
2023/03/02 02:59:28;;;;;;;12.80;5.05;;;;;;;-148.88;80.42;78032.50;5081552;28;20036;-78
2023/03/02 03:01:55;;;;;;;11.05;4.82;;;;;;;-148.88;80.31;78010.16;5081213;28;20024;-78
2023/03/02 03:04:24;;;;;;;10.88;4.85;;;;;;;-148.88;79.53;78012.19;5079148;28;20550;-78
2023/03/02 03:06:54;;;;;;;14.13;5.88;;;;;;;-148.88;79.71;78004.06;5080239;28;20548;-78
2023/03/02 03:09:20;;;;;;;11.25;4.25;;;;;;;-148.88;79.19;78012.19;5080501;28;20089;-78
2023/03/02 03:11:50;;;;;;;13.43;5.75;;;;;;;-148.88;80.40;78008.13;5081110;28;20051;-77
2023/03/02 03:14:20;;;;;;;13.35;5.28;;;;;;;-148.88;80.39;78020.31;5084633;28;20025;-77
2023/03/02 03:16:47;;;;;;;13.02;5.28;;;;;;;-148.88;80.59;78008.13;5083169;28;20111;-78
2023/03/02 03:19:23;;;;;;;11.00;5.55;;;;;;;-148.88;80.03;78006.09;5082584;28;20103;-78
2023/03/02 03:21:51;;;;;;;10.65;4.85;;;;;;;-148.88;79.89;77991.84;5081330;28;20532;-78
2023/03/02 03:24:17;;;;;;;11.98;4.90;;;;;;;-148.88;79.56;77991.84;5081491;28;20036;-78
2023/03/02 03:26:43;;;;;;;9.27;4.45;;;;;;;-148.88;78.28;77975.59;5080705;28;20024;-78
2023/03/02 03:29:09;;;;;;;11.63;5.00;;;;;;;-148.88;78.16;77995.94;5079979;28;20069;-78
2023/03/02 03:31:35;;;;;;;11.80;5.53;;;;;;;-148.88;79.38;78002.03;5079643;28;20024;-78
2023/03/02 03:34:01;;;;;;;11.10;5.60;;;;;;;-148.88;80.47;78000.00;5079817;28;20024;-78
2023/03/02 03:36:28;;;;;;;13.93;5.75;;;;;;;-148.88;80.18;77985.75;5080563;28;20020;-78
2023/03/02 03:38:54;;;;;;;15.95;6.18;;;;;;;-148.88;81.27;77985.75;5081026;28;20020;-78
2023/03/02 03:41:20;;;;;;;12.43;4.82;;;;;;;-148.88;81.31;77983.72;5080069;28;20025;-78
2023/03/02 03:43:45;;;;;;;12.65;5.95;;;;;;;-148.88;81.83;77975.59;5077723;28;20401;-78
2023/03/02 03:46:11;;;;;;;17.25;6.03;;;;;;;-148.88;81.52;77971.53;5078554;28;20047;-78
2023/03/02 03:48:36;;;;;;;10.52;5.80;;;;;;;-148.88;81.95;77975.59;5077782;28;20471;-78
2023/03/02 03:51:02;;;;;;;14.98;6.45;;;;;;;-148.88;82.85;77971.53;5080746;28;20111;-78
2023/03/02 03:53:27;;;;;;;16.10;6.22;;;;;;;-148.88;82.76;77971.53;5082507;28;20085;-78
2023/03/02 03:55:53;;;;;;;16.42;6.43;;;;;;;-148.88;83.18;77981.69;5081091;28;20385;-78
2023/03/02 03:58:18;;;;;;;14.15;6.53;;;;;;;-148.88;83.52;78002.03;5081279;28;20032;-78
2023/03/02 04:00:46;;;;;;;15.80;6.28;;;;;;;-148.88;84.31;78012.19;5078655;28;20029;-78
2023/03/02 04:03:14;;;;;;;14.73;6.85;;;;;;;-148.88;84.52;78014.22;5079559;28;20410;-78
2023/03/02 04:05:40;;;;;;;17.63;7.45;;;;;;;-148.88;84.51;78010.16;5078040;28;20104;-78
2023/03/02 04:08:05;;;;;;;18.15;7.13;;;;;;;-148.88;84.05;78038.59;5081314;28;20063;-78
2023/03/02 04:10:31;;;;;;;17.58;7.45;;;;;;;-148.88;85.80;78077.22;5081374;28;20163;-78
2023/03/02 04:12:56;;;;;;;20.25;7.80;;;;;;;-148.88;88.60;78105.69;5081599;28;20150;-78
2023/03/02 04:15:22;;;;;;;17.60;7.20;;;;;;;-148.88;88.86;78091.44;5082392;28;20024;-78
2023/03/02 04:17:48;;;;;;;18.83;8.00;;;;;;;-148.88;88.73;78079.25;5080049;28;20062;-78
2023/03/02 04:20:15;;;;;;;18.67;7.13;;;;;;;-148.88;89.22;78083.31;5078734;22;20056;-88
2023/03/02 04:22:42;;;;;;;19.95;7.90;;;;;;;-148.88;89.26;78081.28;5055297;28;20028;-89
2023/03/02 04:25:08;;;;;;;21.33;8.93;;;;;;;-148.88;89.28;78077.22;5055398;28;20021;-88
2023/03/02 04:27:33;;;;;;;21.75;8.73;;;;;;;-148.88;89.75;78073.16;5055079;28;20029;-88
2023/03/02 04:29:58;;;;;;;28.42;10.15;;;;;;;-148.88;90.09;78065.03;5055181;28;20025;-89
2023/03/02 04:32:24;;;;;;;24.15;10.70;;;;;;;-148.88;89.92;78060.97;5055206;28;20021;-89
2023/03/02 04:34:49;;;;;;;27.85;11.05;;;;;;;-148.88;90.30;78087.38;5055128;28;20522;-89
2023/03/02 04:37:15;;;;;;;32.58;11.20;;;;;;;-148.88;93.20;78132.09;5054715;28;20029;-88
2023/03/02 04:39:41;;;;;;;29.00;10.98;;;;;;;-148.88;95.04;78146.31;5054528;28;20032;-88
2023/03/02 04:42:06;;;;;;;23.75;9.05;;;;;;;-148.88;95.68;78134.13;5055145;28;20064;-87
2023/03/02 04:44:31;;;;;;;29.17;9.63;;;;;;;-148.88;95.95;78111.78;5053564;28;20115;-86
2023/03/02 04:46:57;;;;;;;29.50;10.07;;;;;;;-148.88;94.89;78093.47;5054787;28;20052;-86
2023/03/02 04:49:22;;;;;;;23.95;10.45;;;;;;;-148.88;93.77;78083.31;5054634;28;20024;-86
2023/03/02 04:51:48;;;;;;;24.27;9.38;;;;;;;-148.88;93.39;78071.13;5054938;28;20401;-86
2023/03/02 04:54:20;;;;;;;25.17;11.15;;;;;;;-148.88;93.25;78075.19;5053526;28;20024;-87
2023/03/02 04:56:53;;;;;;;24.27;10.07;;;;;;;-148.88;93.04;78065.03;5053613;28;20021;-86
2023/03/02 04:59:23;;;;;;;25.83;9.63;;;;;;;-148.88;93.83;78077.22;5054729;28;20021;-86
2023/03/02 05:01:49;;;;;;;24.77;9.77;;;;;;;-148.88;93.37;78073.16;5054544;28;20025;-86
2023/03/02 05:04:14;;;;;;;27.30;10.27;;;;;;;-148.88;92.62;78067.06;5054575;28;20036;-86
2023/03/02 05:06:39;;;;;;;28.60;10.20;;;;;;;-148.88;92.53;78065.03;5054208;28;20036;-87
2023/03/02 05:09:05;;;;;;;25.55;9.82;;;;;;;-148.88;92.84;78069.09;5054351;28;20049;-87
2023/03/02 05:11:32;;;;;;;23.00;9.27;;;;;;;-148.88;92.80;78063.00;5054290;28;20028;-87
2023/03/02 05:14:00;;;;;;;24.73;10.00;;;;;;;-148.88;92.40;78067.06;5054570;28;20391;-86
2023/03/02 05:16:28;;;;;;;22.92;9.45;;;;;;;-148.88;93.60;78079.25;5055115;28;20027;-86
2023/03/02 05:18:54;;;;;;;24.10;10.43;;;;;;;-148.88;94.57;78101.59;5053161;28;20029;-86
2023/03/02 05:21:20;;;;;;;29.67;10.45;;;;;;;-148.88;95.34;78132.09;5054393;28;20031;-86
2023/03/02 05:23:46;;;;;;;28.92;12.15;;;;;;;-148.88;96.72;78148.34;5052795;28;20032;-86
2023/03/02 05:26:12;;;;;;;26.63;10.82;;;;;;;-148.88;96.80;78140.22;5052504;28;20016;-86
2023/03/02 05:28:38;;;;;;;27.60;10.60;;;;;;;-148.88;97.38;78146.31;5052619;28;20024;-86
2023/03/02 05:31:05;;;;;;;26.75;9.93;;;;;;;-148.88;98.29;78160.56;5053253;28;20029;-88
2023/03/02 05:33:31;;;;;;;27.83;11.18;;;;;;;-148.88;98.68;78154.44;5053924;28;20060;-88
2023/03/02 05:35:56;;;;;;;31.20;11.75;;;;;;;-148.88;98.78;78140.22;5052820;28;20116;-88
2023/03/02 05:38:22;;;;;;;26.45;10.30;;;;;;;-148.88;98.72;78138.19;5054188;28;20055;-90
2023/03/02 05:40:49;;;;;;;27.65;10.55;;;;;;;-148.88;98.72;78142.25;5053693;28;20075;-90
2023/03/02 05:43:24;;;;;;;31.65;10.18;;;;;;;-148.88;99.16;78126.00;5059328;28;20025;-92
2023/03/02 05:45:59;;;;;;;28.67;11.25;;;;;;;-148.88;99.84;78119.91;5060501;28;20024;-92
2023/03/02 05:48:24;;;;;;;28.52;11.23;;;;;;;-148.88;99.93;78121.94;5057858;28;20039;-89
2023/03/02 05:50:50;;;;;;;32.22;12.85;;;;;;;-148.88;100.00;78121.94;5068422;28;20029;-91
2023/03/02 05:53:24;;;;;;;27.55;11.27;;;;;;;-148.88;99.59;78109.75;5059535;28;20024;-91
2023/03/02 05:55:50;;;;;;;29.30;12.07;;;;;;;-148.88;99.86;78117.88;5062087;28;20017;-89
2023/03/02 05:58:19;;;;;;;29.02;12.27;;;;;;;-148.88;99.86;78119.91;5058630;28;20045;-87
2023/03/02 06:00:46;;;;;;;25.90;10.70;;;;;;;-148.88;99.84;78109.75;5056599;28;20395;-89
2023/03/02 06:03:12;;;;;;;30.02;11.85;;;;;;;-148.88;99.80;78115.84;5054844;28;20021;-89
2023/03/02 06:05:38;;;;;;;33.72;12.23;;;;;;;-148.88;99.59;78115.84;5054335;28;20119;-89
2023/03/02 06:08:03;;;;;;;26.45;11.45;;;;;;;-148.88;100.00;78130.06;5053866;28;20395;-89
2023/03/02 06:10:29;;;;;;;32.75;12.13;;;;;;;-148.88;100.00;78128.03;5052523;28;20479;-89
2023/03/02 06:12:54;;;;;;;35.53;13.75;;;;;;;-148.88;100.00;78154.44;5055774;28;20052;-90
2023/03/02 06:15:20;;;;;;;33.50;13.20;;;;;;;-148.88;100.00;78160.56;5055580;28;20355;-88
2023/03/02 06:17:46;;;;;;;36.53;14.52;;;;;;;-148.88;100.00;78138.19;5054608;28;20036;-91
2023/03/02 06:20:15;;;;;;;30.58;13.25;;;;;;;-148.88;100.00;78136.16;5052135;28;20132;-91
2023/03/02 06:22:45;;;;;;;33.58;12.70;;;;;;;-148.88;100.00;78113.81;5052824;28;20047;-90
2023/03/02 06:25:21;;;;;;;28.20;12.45;;;;;;;-148.88;100.00;78126.00;5052242;28;20506;-92
2023/03/02 06:27:52;;;;;;;37.00;13.55;;;;;;;-148.88;100.00;78117.88;5052159;28;20039;-90
2023/03/02 06:30:21;;;;;;;30.23;12.50;;;;;;;-148.88;100.00;78111.78;5052124;28;20021;-90
2023/03/02 06:32:47;;;;;;;30.15;12.95;;;;;;;-148.88;100.00;78109.75;5052123;28;20028;-90
2023/03/02 06:35:33;;;;;;;41.60;14.68;;;;;;;-148.88;100.00;78144.28;5052121;28;20025;-91
2023/03/02 06:37:58;;;;;;;37.50;14.02;;;;;;;-148.88;100.00;78142.25;5053317;28;20017;-91
2023/03/02 06:40:24;;;;;;;37.60;14.10;;;;;;;-148.88;100.00;78121.94;5052989;28;20032;-91
2023/03/02 06:42:49;;;;;;;43.30;15.30;;;;;;;-148.88;100.00;78130.06;5052314;28;20363;-91
2023/03/02 06:45:14;;;;;;;38.38;15.77;;;;;;;-148.88;100.00;78117.88;5053339;28;20116;-91
2023/03/02 06:47:40;;;;;;;39.38;14.82;;;;;;;-148.88;100.00;78087.38;5053258;28;20021;-90
2023/03/02 06:50:07;;;;;;;39.42;14.77;;;;;;;-148.88;100.00;78093.47;5053437;28;20037;-91
2023/03/02 06:52:33;;;;;;;37.03;13.88;;;;;;;-148.88;100.00;78079.25;5051930;28;20467;-91
2023/03/02 06:54:59;;;;;;;37.25;15.30;;;;;;;-148.88;100.00;78065.03;5052486;28;20028;-91
2023/03/02 06:57:32;;;;;;;43.55;15.02;;;;;;;-148.88;100.00;78065.03;5052256;28;20025;-91
2023/03/02 06:59:57;;;;;;;50.35;14.73;;;;;;;-148.88;100.00;78081.28;5052983;28;20020;-91
2023/03/02 07:02:23;;;;;;;49.70;15.48;;;;;;;-148.88;100.00;78069.09;5052107;28;20051;-91
2023/03/02 07:04:48;;;;;;;38.80;14.80;;;;;;;-148.88;100.00;78060.97;5052007;28;20024;-91
2023/03/02 07:07:14;;;;;;;46.83;16.02;;;;;;;-148.88;100.00;78058.94;5051923;28;20058;-91
2023/03/02 07:09:39;;;;;;;49.05;15.85;;;;;;;-148.88;100.00;78052.84;5052695;28;20041;-91
2023/03/02 07:12:04;;;;;;;39.05;14.48;;;;;;;-148.88;100.00;78024.38;5052869;28;20116;-90
2023/03/02 07:14:30;;;;;;;41.95;16.77;;;;;;;-148.88;100.00;78014.22;5052839;28;20560;-90
2023/03/02 07:16:56;;;;;;;52.63;15.80;;;;;;;-148.88;100.00;77995.94;5052722;28;20464;-91
2023/03/02 07:19:21;;;;;;;43.50;16.23;;;;;;;-148.88;100.00;77991.84;5051816;28;20418;-90
2023/03/02 07:21:47;;;;;;;48.05;16.67;;;;;;;-148.88;100.00;78012.19;5056390;28;20502;-91
2023/03/02 07:24:12;;;;;;;47.90;17.02;;;;;;;-148.88;100.00;78000.00;5055761;28;20029;-91
2023/03/02 07:26:37;;;;;;;43.75;16.40;;;;;;;-148.88;100.00;77979.66;5055221;28;20032;-90
2023/03/02 07:29:03;;;;;;;45.83;16.02;;;;;;;-148.88;100.00;77961.38;5056594;28;20386;-91
2023/03/02 07:31:29;;;;;;;41.40;15.02;;;;;;;-148.88;100.00;77985.75;5056709;28;20078;-90
2023/03/02 07:33:55;;;;;;;43.88;17.23;;;;;;;-148.88;100.00;77979.66;5055360;28;20391;-90
2023/03/02 07:36:20;;;;;;;48.60;16.75;;;;;;;-148.88;100.00;77959.34;5055072;28;20047;-90
2023/03/02 07:38:45;;;;;;;49.38;16.42;;;;;;;-148.88;100.00;77947.16;5054672;28;20031;-90
2023/03/02 07:41:11;;;;;;;47.63;17.52;;;;;;;-148.88;100.00;77924.78;5054641;28;20021;-91
2023/03/02 07:43:37;;;;;;;46.63;16.08;;;;;;;-148.88;100.00;77930.91;5055840;28;20029;-91
2023/03/02 07:46:12;;;;;;;42.67;15.95;;;;;;;-148.88;100.00;77918.69;5056036;28;20391;-91
2023/03/02 07:48:37;;;;;;;46.53;17.20;;;;;;;-148.88;100.00;77912.59;5055358;28;20017;-91
2023/03/02 07:51:04;;;;;;;39.35;15.93;;;;;;;-148.88;100.00;77932.94;5055536;28;20078;-90
2023/03/02 07:53:30;;;;;;;43.97;15.75;;;;;;;-148.88;100.00;77930.91;5054350;28;20083;-90
2023/03/02 07:55:56;;;;;;;45.53;17.05;;;;;;;-148.88;100.00;77951.22;5054724;28;20029;-90
2023/03/02 07:58:21;;;;;;;40.05;15.80;;;;;;;-148.88;100.00;77926.81;5054308;28;20033;-90
2023/03/02 08:00:47;;;;;;;42.08;16.65;;;;;;;-148.88;100.00;77939.03;5055555;28;20032;-91
2023/03/02 08:03:18;;;;;;;42.60;17.05;;;;;;;-148.88;100.00;77943.09;5055821;28;20509;-90
2023/03/02 08:05:44;;;;;;;38.35;15.23;;;;;;;-148.88;100.00;77934.97;5055474;28;20079;-90
2023/03/02 08:08:09;;;;;;;37.80;14.68;;;;;;;-148.88;100.00;77945.13;5055370;28;20021;-90
2023/03/02 08:10:34;;;;;;;42.25;15.18;;;;;;;-148.88;100.00;77939.03;5054181;28;20139;-91
2023/03/02 08:13:00;;;;;;;43.28;15.57;;;;;;;-148.88;100.00;77914.63;5055351;28;20070;-91
2023/03/02 08:15:26;;;;;;;53.10;16.92;;;;;;;-148.88;100.00;77943.09;5055386;28;20021;-90
2023/03/02 08:17:51;;;;;;;45.50;18.00;;;;;;;-148.88;100.00;77934.97;5053843;28;20043;-90
2023/03/02 08:20:20;;;;;;;44.85;15.60;;;;;;;-148.88;100.00;77934.97;5054271;28;20363;-90
2023/03/02 08:22:45;;;;;;;44.30;15.65;;;;;;;-148.88;100.00;77939.03;5055304;28;20029;-91
2023/03/02 08:25:16;;;;;;;45.17;14.55;;;;;;;-148.88;100.00;77955.28;5055260;28;20099;-91
2023/03/02 08:27:43;;;;;;;43.38;15.82;;;;;;;-148.88;100.00;77910.56;5056194;28;20025;-90
2023/03/02 08:30:20;;;;;;;45.22;15.18;;;;;;;-148.88;100.00;77914.63;5054818;28;20032;-91
2023/03/02 08:33:02;;;;;;;44.90;16.65;;;;;;;-148.88;100.00;77894.31;5053462;28;20048;-90
2023/03/02 08:35:27;;;;;;;46.15;16.52;;;;;;;-148.88;100.00;77914.63;5053877;28;20447;-91
2023/03/02 08:37:58;;;;;;;45.08;17.17;;;;;;;-148.88;100.00;77890.25;5053533;28;20021;-90
2023/03/02 08:40:27;;;;;;;37.13;14.07;;;;;;;-148.88;100.00;77855.69;5054166;28;20032;-90
2023/03/02 08:42:55;;;;;;;35.35;14.95;;;;;;;-148.88;100.00;77839.44;5056140;28;20029;-90
2023/03/02 08:45:24;;;;;;;43.83;15.75;;;;;;;-148.88;100.00;77857.72;5059564;28;20107;-89
2023/03/02 08:47:55;;;;;;;39.67;14.55;;;;;;;-148.88;100.00;77833.34;5054730;28;20058;-90
2023/03/02 08:50:20;;;;;;;39.25;14.63;;;;;;;-148.88;100.00;77845.53;5053345;28;20020;-90
2023/03/02 08:52:46;;;;;;;37.30;14.98;;;;;;;-148.88;99.63;77865.84;5053739;28;20028;-89
2023/03/02 08:55:17;;;;;;;39.15;14.38;;;;;;;-148.88;99.38;77825.22;5053120;28;20025;-89
2023/03/02 08:57:42;;;;;;;43.78;15.57;;;;;;;-148.88;99.82;77829.28;5053374;28;20406;-89
2023/03/02 09:00:13;;;;;;;40.95;16.08;;;;;;;-148.88;99.28;77829.28;5053255;28;20021;-90
2023/03/02 09:02:38;;;;;;;43.45;14.85;;;;;;;-148.88;99.24;77786.59;5052789;28;20112;-89
2023/03/02 09:05:16;;;;;;;38.60;15.43;;;;;;;-148.88;99.31;77833.34;5054272;28;20029;-90
2023/03/02 09:07:41;;;;;;;35.05;14.82;;;;;;;-148.88;99.28;77788.63;5054498;28;20090;-89
2023/03/02 09:10:07;;;;;;;39.95;15.02;;;;;;;-148.88;98.56;77782.53;5054614;28;20476;-91
2023/03/02 09:12:32;;;;;;;32.00;13.15;;;;;;;-148.88;99.22;77762.22;5054239;28;20028;-89
2023/03/02 09:14:57;;;;;;;29.02;13.27;;;;;;;-148.88;99.47;77741.88;5054421;28;20058;-90
2023/03/02 09:17:23;;;;;;;37.92;14.00;;;;;;;-148.88;98.65;77739.84;5053869;28;20044;-88
2023/03/02 09:19:48;;;;;;;31.02;13.07;;;;;;;-148.88;98.02;77727.66;5054332;28;20115;-89
2023/03/02 09:22:13;;;;;;;31.92;13.27;;;;;;;-148.88;97.50;77699.22;5054058;28;20036;-89
2023/03/02 09:24:38;;;;;;;29.13;12.68;;;;;;;-148.88;95.67;77739.84;5052540;28;20017;-89
2023/03/02 09:27:04;;;;;;;31.75;13.40;;;;;;;-148.88;96.78;77715.47;5052682;28;20025;-89
2023/03/02 09:29:29;;;;;;;34.85;12.82;;;;;;;-148.88;95.55;77711.41;5054500;28;20021;-88
2023/03/02 09:31:54;;;;;;;29.67;12.48;;;;;;;-148.88;95.25;77703.28;5054251;28;20029;-88
2023/03/02 09:34:23;;;;;;;29.70;12.73;;;;;;;-148.88;94.36;77682.97;5053835;28;20021;-88
2023/03/02 09:36:51;;;;;;;31.90;13.25;;;;;;;-148.88;94.63;77691.09;5052619;28;20395;-89
2023/03/02 09:39:18;;;;;;;35.95;14.23;;;;;;;-148.88;94.64;77682.97;5053549;28;20024;-89
2023/03/02 09:42:21;;;;;;;31.42;13.00;;;;;;;-148.88;96.05;77678.91;5053995;28;20021;-89
2023/03/02 09:44:58;;;;;;;34.35;12.88;;;;;;;-148.88;94.76;77591.50;5031649;28;20469;-89
2023/03/02 09:47:45;;;;;;;29.92;12.52;;;;;;;-148.88;94.11;77548.84;5053897;28;20094;-89
2023/03/02 09:50:26;;;;;;;26.10;11.55;;;;;;;-148.88;89.58;77597.59;5053427;28;20024;-88
2023/03/02 09:53:19;;;;;;;26.20;11.68;;;;;;;-148.88;88.60;77634.19;5052398;28;20091;-89
2023/03/02 09:55:49;;;;;;;25.20;11.52;;;;;;;-148.88;88.60;77642.31;5053428;28;20083;-89
2023/03/02 09:58:24;;;;;;;24.70;10.18;;;;;;;-148.88;90.48;77638.25;5051952;28;20036;-89
2023/03/02 10:00:50;;;;;;;29.25;10.75;;;;;;;-148.88;89.66;77630.13;5051454;28;20063;-89
2023/03/02 10:03:30;;;;;;;26.10;11.50;;;;;;;-148.88;89.07;77648.41;5052098;28;20049;-88
2023/03/02 10:05:56;;;;;;;24.92;11.27;;;;;;;-148.88;90.04;77634.19;5053151;28;20074;-89
2023/03/02 10:08:27;;;;;;;29.35;9.88;;;;;;;-148.88;89.03;77642.31;5051855;28;20033;-89
2023/03/02 10:10:52;;;;;;;24.75;10.13;;;;;;;-148.88;91.51;77687.03;5053083;28;20052;-89
2023/03/02 10:13:23;;;;;;;27.50;11.13;;;;;;;-148.88;92.29;77573.22;5053383;28;20021;-89
2023/03/02 10:15:58;;;;;;;27.77;12.00;;;;;;;-148.88;91.70;77510.22;5053413;28;20032;-89
2023/03/02 10:18:32;;;;;;;27.20;11.65;;;;;;;-148.88;87.84;77435.03;5053114;28;20112;-89
2023/03/02 10:21:10;;;;;;;25.10;11.43;;;;;;;-148.88;82.96;77398.47;5053334;28;20083;-89
2023/03/02 10:23:48;;;;;;;20.98;10.57;;;;;;;-148.88;82.41;77426.91;5053559;28;20032;-89
2023/03/02 10:26:25;;;;;;;21.33;9.95;;;;;;;-148.88;82.22;77430.97;5053973;28;20383;-90
2023/03/02 10:29:21;;;;;;;23.95;11.10;;;;;;;-148.88;81.38;77380.19;5054891;28;20060;-90
2023/03/02 10:31:58;;;;;;;27.10;11.73;;;;;;;-148.88;80.19;77392.38;5053975;28;20021;-90
2023/03/02 10:34:25;;;;;;;25.40;10.55;;;;;;;-148.88;80.15;77349.69;5054291;28;20423;-89
2023/03/02 10:36:51;;;;;;;20.92;9.73;;;;;;;-148.88;78.85;77345.63;5053339;28;20036;-89
2023/03/02 10:39:19;;;;;;;23.10;11.30;;;;;;;-148.88;79.07;77329.38;5053730;28;20020;-89
2023/03/02 10:42:03;;;;;;;25.10;10.82;;;;;;;-148.88;76.42;77329.38;5053650;28;20021;-90
2023/03/02 10:44:42;;;;;;;23.30;10.07;;;;;;;-148.88;78.92;77353.75;5053598;28;20036;-90
2023/03/02 10:47:25;;;;;;;22.15;10.73;;;;;;;-148.88;76.59;77329.38;5051718;28;20024;-89
2023/03/02 10:49:53;;;;;;;24.95;11.35;;;;;;;-148.88;78.05;77300.94;5053227;28;20082;-89
2023/03/02 10:52:23;;;;;;;24.80;11.60;;;;;;;-148.88;76.36;77292.81;5051730;28;20119;-89
2023/03/02 10:55:02;;;;;;;24.02;10.63;;;;;;;-148.88;78.23;77284.66;5054105;28;20025;-89
2023/03/02 10:57:37;;;;;;;27.67;11.60;;;;;;;-148.88;77.12;77256.22;5056192;28;20028;-90
2023/03/02 11:00:17;;;;;;;21.08;11.32;;;;;;;-148.88;76.56;77211.53;5056840;28;20048;-89
2023/03/02 11:02:57;;;;;;;29.20;11.57;;;;;;;-148.88;73.55;77091.63;5056741;28;20028;-89
2023/03/02 11:05:35;;;;;;;24.63;12.13;;;;;;;-148.88;70.28;77207.47;5056583;28;20031;-89
2023/03/02 11:08:24;;;;;;;23.95;11.60;;;;;;;-148.88;71.46;77122.13;5054923;28;20078;-90
2023/03/02 11:10:59;;;;;;;26.92;12.35;;;;;;;-148.88;68.83;77073.34;5051590;28;20047;-90